createdAt,value
2024-03-05T00:01:11.054Z,1.70
2024-03-05T00:03:37.879Z,0.68
2024-03-05T00:06:07.599Z,0.93
2024-03-05T00:08:34.602Z,0.52
2024-03-05T00:11:01.460Z,0.50
2024-03-05T00:13:28.492Z,0.88
2024-03-05T00:15:55.346Z,2.05
2024-03-05T00:18:22.232Z,0.60
2024-03-05T00:20:49.023Z,0.80
2024-03-05T00:23:16.006Z,0.82
2024-03-05T00:25:43.495Z,0.63
2024-03-05T00:28:10.321Z,0.60
2024-03-05T00:30:37.300Z,1.10
2024-03-05T00:33:04.633Z,1.20
2024-03-05T00:35:31.794Z,0.63
2024-03-05T00:37:58.720Z,0.35
2024-03-05T00:40:25.626Z,0.45
2024-03-05T00:42:52.404Z,1.50
2024-03-05T00:45:22.941Z,0.40
2024-03-05T00:47:49.854Z,1.02
2024-03-05T00:50:16.659Z,0.30
2024-03-05T00:52:43.907Z,0.40
2024-03-05T00:55:10.836Z,0.75
2024-03-05T00:57:38.263Z,0.75
2024-03-05T01:00:06.700Z,2.15
2024-03-05T01:02:33.554Z,0.40
2024-03-05T01:05:00.464Z,0.52
2024-03-05T01:07:27.953Z,0.30
2024-03-05T01:09:54.771Z,0.60
2024-03-05T01:12:21.575Z,0.85
2024-03-05T01:14:48.351Z,0.75
2024-03-05T01:17:16.058Z,2.08
2024-03-05T01:19:42.980Z,0.32
2024-03-05T01:22:09.955Z,0.82
2024-03-05T01:24:37.566Z,1.65
2024-03-05T01:27:06.155Z,0.50
2024-03-05T01:29:33.509Z,1.05
2024-03-05T01:32:01.595Z,0.50
2024-03-05T01:34:31.445Z,1.33
2024-03-05T01:36:58.817Z,0.80
2024-03-05T01:39:30.068Z,0.77
2024-03-05T01:41:57.703Z,0.50
2024-03-05T01:44:25.184Z,1.15
2024-03-05T01:46:57.742Z,0.95
2024-03-05T01:49:26.554Z,0.68
2024-03-05T01:51:56.264Z,0.75
2024-03-05T01:54:25.005Z,2.67
2024-03-05T01:56:58.498Z,0.75
2024-03-05T01:59:26.297Z,0.60
2024-03-05T02:01:54.094Z,0.57
2024-03-05T02:04:22.936Z,1.13
2024-03-05T02:06:53.108Z,0.45
2024-03-05T02:09:22.832Z,0.50
2024-03-05T02:11:56.533Z,0.65
2024-03-05T02:14:29.541Z,0.65
2024-03-05T02:16:58.773Z,0.57
2024-03-05T02:19:25.700Z,0.80
2024-03-05T02:22:08.525Z,0.95
2024-03-05T02:24:35.354Z,0.73
2024-03-05T02:27:04.256Z,0.90
2024-03-05T02:29:33.887Z,0.82
2024-03-05T02:32:01.773Z,1.27
2024-03-05T02:34:28.985Z,1.48
2024-03-05T02:36:55.906Z,1.40
2024-03-05T02:39:24.403Z,1.20
2024-03-05T02:41:51.474Z,1.60
2024-03-05T02:44:18.288Z,0.50
2024-03-05T02:46:45.234Z,1.05
2024-03-05T02:49:14.981Z,1.23
2024-03-05T02:51:42.016Z,0.60
2024-03-05T02:54:08.819Z,0.73
2024-03-05T02:56:35.648Z,0.60
2024-03-05T02:59:02.567Z,1.13
2024-03-05T03:01:29.430Z,0.43
2024-03-05T03:03:56.260Z,0.60
2024-03-05T03:06:23.637Z,0.65
2024-03-05T03:08:50.439Z,2.60
2024-03-05T03:11:18.018Z,1.50
2024-03-05T03:13:48.088Z,3.13
2024-03-05T03:16:15.460Z,2.05
2024-03-05T03:18:44.080Z,1.13
2024-03-05T03:21:10.976Z,1.58
2024-03-05T03:23:37.765Z,1.33
2024-03-05T03:26:04.916Z,1.00
2024-03-05T03:28:32.116Z,5.35
2024-03-05T03:30:59.254Z,2.78
2024-03-05T03:33:27.663Z,0.75
2024-03-05T03:35:56.810Z,0.52
2024-03-05T03:38:24.987Z,3.40
2024-03-05T03:40:53.579Z,1.75
2024-03-05T03:43:21.083Z,0.63
2024-03-05T03:45:49.150Z,1.23
2024-03-05T03:48:16.059Z,1.05
2024-03-05T03:50:42.926Z,0.85
2024-03-05T03:53:09.604Z,1.33
2024-03-05T03:55:37.838Z,0.98
2024-03-05T03:58:05.106Z,0.85
2024-03-05T04:00:33.999Z,1.83
2024-03-05T04:03:00.975Z,0.82
2024-03-05T04:05:27.661Z,1.38
2024-03-05T04:07:54.642Z,0.93
2024-03-05T04:10:21.763Z,4.65
2024-03-05T04:12:48.497Z,1.02
2024-03-05T04:15:15.254Z,1.13
2024-03-05T04:17:42.595Z,1.25
2024-03-05T04:20:10.693Z,0.40
2024-03-05T04:22:41.431Z,1.10
2024-03-05T04:25:08.783Z,0.70
2024-03-05T04:27:37.931Z,0.60
2024-03-05T04:30:11.670Z,0.77
2024-03-05T04:32:42.076Z,0.82
2024-03-05T04:35:12.487Z,1.42
2024-03-05T04:37:39.295Z,0.85
2024-03-05T04:40:11.344Z,1.30
2024-03-05T04:42:38.555Z,0.80
2024-03-05T04:45:05.456Z,0.65
2024-03-05T04:47:32.802Z,2.10
2024-03-05T04:49:59.738Z,1.48
2024-03-05T04:52:30.855Z,0.77
2024-03-05T04:54:59.146Z,1.17
2024-03-05T04:57:25.820Z,1.23
2024-03-05T04:59:53.608Z,5.85
2024-03-05T05:02:20.573Z,1.60
2024-03-05T05:04:49.339Z,1.35
2024-03-05T05:07:17.653Z,1.45
2024-03-05T05:09:45.476Z,2.17
2024-03-05T05:12:13.175Z,1.52
2024-03-05T05:14:39.892Z,0.90
2024-03-05T05:17:06.957Z,3.42
2024-03-05T05:19:33.895Z,1.63
2024-03-05T05:22:00.675Z,1.30
2024-03-05T05:24:27.359Z,0.75
2024-03-05T05:26:54.279Z,0.43
2024-03-05T05:29:31.191Z,0.60
2024-03-05T05:32:04.391Z,1.48
2024-03-05T05:34:31.161Z,1.25
2024-03-05T05:36:58.378Z,0.93
2024-03-05T05:39:25.984Z,0.90
2024-03-05T05:41:53.840Z,2.35
2024-03-05T05:44:21.128Z,1.13
2024-03-05T05:46:47.964Z,1.83
2024-03-05T05:49:20.999Z,2.58
2024-03-05T05:51:48.317Z,2.13
2024-03-05T05:54:14.991Z,1.02
2024-03-05T05:56:42.661Z,1.95
2024-03-05T05:59:10.221Z,0.68
2024-03-05T06:01:39.050Z,2.70
2024-03-05T06:04:07.561Z,1.73
2024-03-05T06:06:39.776Z,0.98
2024-03-05T06:09:12.425Z,2.20
2024-03-05T06:11:39.863Z,0.82
2024-03-05T06:14:07.923Z,1.65
2024-03-05T06:16:35.150Z,0.77
2024-03-05T06:19:02.387Z,0.65
2024-03-05T06:21:29.194Z,2.03
2024-03-05T06:23:55.880Z,0.60
2024-03-05T06:26:22.761Z,0.77
2024-03-05T06:28:49.585Z,0.88
2024-03-05T06:31:17.114Z,1.23
2024-03-05T06:33:43.995Z,0.95
2024-03-05T06:36:12.627Z,1.10
2024-03-05T06:38:39.283Z,1.58
2024-03-05T06:41:06.194Z,0.50
2024-03-05T06:43:34.574Z,0.88
2024-03-05T06:46:01.850Z,0.73
2024-03-05T06:48:28.589Z,0.82
2024-03-05T06:51:17.210Z,2.38
2024-03-05T06:54:02.335Z,0.60
2024-03-05T06:56:41.427Z,1.77
2024-03-05T06:59:11.341Z,3.08
2024-03-05T07:01:38.355Z,1.15
2024-03-05T07:04:07.786Z,1.35
2024-03-05T07:06:35.457Z,1.15
2024-03-05T07:09:02.862Z,0.85
2024-03-05T07:11:30.779Z,0.73
2024-03-05T07:13:59.076Z,1.70
2024-03-05T07:16:26.147Z,1.23
2024-03-05T07:18:57.044Z,1.95
2024-03-05T07:21:25.363Z,2.17
2024-03-05T07:23:54.497Z,1.15
2024-03-05T07:26:22.235Z,2.05
2024-03-05T07:28:49.824Z,1.95
2024-03-05T07:31:17.935Z,1.15
2024-03-05T07:33:47.694Z,2.15
2024-03-05T07:36:16.868Z,1.63
2024-03-05T07:38:43.527Z,0.57
2024-03-05T07:41:17.685Z,1.58
2024-03-05T07:43:53.222Z,2.05
2024-03-05T07:46:20.319Z,0.63
2024-03-05T07:48:47.154Z,0.95
2024-03-05T07:51:17.232Z,0.68
2024-03-05T07:53:48.437Z,1.30
2024-03-05T07:56:15.330Z,1.50
2024-03-05T07:58:42.127Z,1.15
2024-03-05T08:01:09.178Z,1.05
2024-03-05T08:03:36.593Z,1.38
2024-03-05T08:06:05.497Z,1.13
2024-03-05T08:08:32.203Z,0.80
2024-03-05T08:10:59.067Z,1.77
2024-03-05T08:13:25.818Z,0.57
2024-03-05T08:15:54.817Z,1.20
2024-03-05T08:18:21.500Z,1.13
2024-03-05T08:20:48.246Z,1.42
2024-03-05T08:23:15.218Z,0.40
2024-03-05T08:25:43.195Z,1.17
2024-03-05T08:28:11.213Z,1.02
2024-03-05T08:30:37.874Z,0.50
2024-03-05T08:33:06.308Z,1.65
2024-03-05T08:35:33.231Z,2.13
2024-03-05T08:38:01.513Z,0.77
2024-03-05T08:40:35.909Z,1.42
2024-03-05T08:43:05.173Z,1.35
2024-03-05T08:45:33.109Z,1.10
2024-03-05T08:48:00.100Z,0.98
2024-03-05T08:50:30.490Z,0.93
2024-03-05T08:52:59.882Z,0.95
2024-03-05T08:55:27.641Z,1.58
2024-03-05T08:57:55.947Z,1.55
2024-03-05T09:00:33.362Z,1.50
2024-03-05T09:03:09.648Z,0.50
2024-03-05T09:05:37.201Z,0.90
2024-03-05T09:08:06.720Z,1.15
2024-03-05T09:10:34.069Z,6.13
2024-03-05T09:13:01.269Z,1.65
2024-03-05T09:15:28.193Z,0.93
2024-03-05T09:17:55.055Z,1.10
2024-03-05T09:20:21.908Z,0.93
2024-03-05T09:22:48.757Z,1.90
2024-03-05T09:25:17.358Z,5.82
2024-03-05T09:27:46.538Z,0.77
2024-03-05T09:30:19.726Z,1.38
2024-03-05T09:32:47.953Z,0.95
2024-03-05T09:35:16.621Z,0.52
2024-03-05T09:37:46.983Z,1.00
2024-03-05T09:40:20.903Z,1.15
2024-03-05T09:42:48.502Z,1.45
2024-03-05T09:45:19.029Z,1.58
2024-03-05T09:47:48.571Z,0.75
2024-03-05T09:50:18.147Z,2.60
2024-03-05T09:52:47.871Z,2.28
2024-03-05T09:55:16.650Z,1.00
2024-03-05T09:57:47.543Z,1.00
2024-03-05T10:00:19.793Z,1.27
2024-03-05T10:02:53.384Z,1.27
2024-03-05T10:05:21.381Z,2.47
2024-03-05T10:07:49.785Z,1.27
2024-03-05T10:10:20.681Z,1.48
2024-03-05T10:12:47.428Z,2.35
2024-03-05T10:15:24.470Z,4.25
2024-03-05T10:17:54.563Z,3.83
2024-03-05T10:20:33.704Z,4.28
2024-03-05T10:23:03.260Z,4.63
2024-03-05T10:25:31.820Z,4.35
2024-03-05T10:27:58.737Z,4.32
2024-03-05T10:30:34.583Z,4.57
2024-03-05T10:33:08.977Z,3.97
2024-03-05T10:35:38.017Z,4.55
2024-03-05T10:38:11.366Z,3.90
2024-03-05T10:40:39.538Z,4.65
2024-03-05T10:43:10.736Z,3.72
2024-03-05T10:45:42.122Z,4.30
2024-03-05T10:48:11.820Z,4.00
2024-03-05T10:50:41.623Z,1.27
2024-03-05T10:53:10.032Z,3.80
2024-03-05T10:55:38.538Z,4.00
2024-03-05T10:58:12.932Z,3.13
2024-03-05T11:00:41.855Z,4.13
2024-03-05T11:03:10.740Z,4.65
2024-03-05T11:05:52.383Z,3.60
2024-03-05T11:08:21.150Z,4.03
2024-03-05T11:10:56.501Z,4.45
2024-03-05T11:13:26.028Z,2.72
2024-03-05T11:15:53.668Z,3.80
2024-03-05T11:18:35.126Z,3.38
2024-03-05T11:21:07.800Z,3.72
2024-03-05T11:23:38.413Z,4.28
2024-03-05T11:26:07.938Z,1.40
2024-03-05T11:28:37.098Z,3.53
2024-03-05T11:31:20.253Z,4.20
2024-03-05T11:34:04.817Z,1.10
2024-03-05T11:36:36.467Z,5.22
2024-03-05T11:39:04.671Z,4.25
2024-03-05T11:41:39.209Z,4.80
2024-03-05T11:44:06.426Z,4.57
2024-03-05T11:46:52.463Z,3.58
2024-03-05T11:49:20.651Z,3.65
2024-03-05T11:51:47.908Z,4.65
2024-03-05T11:54:19.375Z,4.60
2024-03-05T11:57:00.320Z,4.13
2024-03-05T11:59:40.492Z,4.13
2024-03-05T12:02:11.573Z,5.68
2024-03-05T12:04:40.236Z,4.75
2024-03-05T12:07:09.794Z,4.78
2024-03-05T12:09:40.813Z,6.07
2024-03-05T12:12:13.486Z,5.43
2024-03-05T12:14:52.329Z,6.28
2024-03-05T12:17:21.135Z,6.30
2024-03-05T12:20:06.316Z,7.03
2024-03-05T12:22:33.215Z,5.78
2024-03-05T12:25:00.170Z,4.97
2024-03-05T12:27:27.063Z,4.63
2024-03-05T12:29:54.221Z,4.45
2024-03-05T12:32:21.524Z,4.80
2024-03-05T12:34:49.116Z,4.20
2024-03-05T12:37:17.561Z,5.38
2024-03-05T12:39:44.312Z,4.72
2024-03-05T12:42:14.662Z,4.55
2024-03-05T12:44:42.948Z,4.03
2024-03-05T12:47:22.111Z,3.75
2024-03-05T12:49:50.038Z,3.97
2024-03-05T12:52:21.769Z,3.92
2024-03-05T12:55:01.411Z,3.85
2024-03-05T12:57:30.309Z,3.90
2024-03-05T13:00:12.002Z,4.32
2024-03-05T13:02:43.029Z,4.10
2024-03-05T13:05:10.092Z,3.67
2024-03-05T13:07:37.240Z,3.28
2024-03-05T13:10:13.011Z,3.40
2024-03-05T13:12:40.495Z,2.60
2024-03-05T13:15:08.180Z,2.97
2024-03-05T13:17:35.112Z,3.42
2024-03-05T13:20:01.969Z,3.20
2024-03-05T13:22:28.758Z,3.28
2024-03-05T13:24:56.334Z,4.45
2024-03-05T13:27:24.994Z,3.20
2024-03-05T13:30:01.043Z,3.50
2024-03-05T13:32:32.410Z,4.60
2024-03-05T13:34:59.070Z,3.50
2024-03-05T13:37:25.803Z,2.90
2024-03-05T13:39:52.436Z,3.13
2024-03-05T13:42:20.440Z,3.05
2024-03-05T13:44:47.263Z,3.92
2024-03-05T13:47:14.554Z,2.70
2024-03-05T13:49:41.419Z,3.25
2024-03-05T13:52:09.988Z,3.63
2024-03-05T13:54:38.627Z,3.33
2024-03-05T13:57:05.948Z,3.70
2024-03-05T13:59:33.533Z,2.70
2024-03-05T14:02:01.471Z,3.00
2024-03-05T14:04:28.252Z,3.33
2024-03-05T14:06:54.994Z,3.45
2024-03-05T14:09:21.951Z,3.10
2024-03-05T14:11:48.831Z,3.50
2024-03-05T14:14:20.692Z,2.92
2024-03-05T14:16:48.492Z,3.78
2024-03-05T14:19:15.692Z,3.00
2024-03-05T14:21:42.433Z,2.95
2024-03-05T14:24:13.792Z,2.95
2024-03-05T14:26:43.056Z,3.03
2024-03-05T14:29:10.402Z,3.10
2024-03-05T14:31:38.348Z,4.05
2024-03-05T14:34:05.571Z,3.17
2024-03-05T14:36:32.906Z,2.75
2024-03-05T14:38:59.592Z,3.60
2024-03-05T14:41:26.596Z,3.30
2024-03-05T14:43:53.372Z,3.63
2024-03-05T14:46:20.177Z,2.85
2024-03-05T14:48:46.877Z,3.53
2024-03-05T14:51:14.681Z,3.70
2024-03-05T14:53:41.510Z,3.17
2024-03-05T14:56:08.586Z,2.55
2024-03-05T14:58:35.389Z,3.92
2024-03-05T15:01:02.108Z,3.10
2024-03-05T15:03:28.820Z,3.58
2024-03-05T15:05:57.823Z,2.63
2024-03-05T15:08:24.544Z,2.25
2024-03-05T15:10:51.378Z,2.30
2024-03-05T15:13:18.432Z,2.40
2024-03-05T15:15:45.183Z,3.03
2024-03-05T15:18:11.924Z,2.80
2024-03-05T15:20:40.111Z,3.30
2024-03-05T15:23:06.884Z,2.33
2024-03-05T15:25:36.075Z,2.40
2024-03-05T15:28:05.015Z,2.63
2024-03-05T15:30:36.503Z,2.95
2024-03-05T15:33:03.961Z,3.20
2024-03-05T15:35:31.394Z,3.15
2024-03-05T15:37:59.422Z,2.17
2024-03-05T15:40:26.639Z,2.10
2024-03-05T15:42:55.044Z,2.20
2024-03-05T15:45:24.063Z,2.95
2024-03-05T15:47:54.133Z,2.50
2024-03-05T15:50:24.271Z,2.63
2024-03-05T15:52:56.180Z,2.75
2024-03-05T15:55:25.991Z,2.40
2024-03-05T15:58:02.506Z,2.83
2024-03-05T16:00:37.731Z,2.75
2024-03-05T16:03:07.632Z,2.50
2024-03-05T16:05:47.556Z,2.72
2024-03-05T16:08:25.311Z,3.40
2024-03-05T16:10:53.448Z,2.92
2024-03-05T16:13:20.785Z,3.50
2024-03-05T16:15:48.141Z,3.05
2024-03-05T16:18:15.919Z,3.13
2024-03-05T16:20:42.995Z,3.00
2024-03-05T16:23:10.571Z,2.90
2024-03-05T16:25:42.320Z,2.65
2024-03-05T16:28:15.108Z,2.38
2024-03-05T16:30:42.477Z,2.53
2024-03-05T16:33:10.611Z,2.33
2024-03-05T16:35:37.623Z,2.45
2024-03-05T16:38:06.138Z,2.40
2024-03-05T16:40:37.327Z,2.15
2024-03-05T16:43:06.294Z,2.97
2024-03-05T16:45:33.722Z,2.58
2024-03-05T16:48:01.443Z,2.45
2024-03-05T16:50:30.712Z,2.17
2024-03-05T16:52:59.198Z,2.58
2024-03-05T16:55:27.525Z,2.38
2024-03-05T16:57:56.130Z,2.30
2024-03-05T17:00:27.790Z,2.28
2024-03-05T17:03:01.357Z,2.00
2024-03-05T17:05:34.342Z,2.63
2024-03-05T17:08:06.110Z,2.00
2024-03-05T17:10:33.640Z,2.25
2024-03-05T17:13:19.187Z,2.08
2024-03-05T17:15:52.215Z,2.00
2024-03-05T17:18:19.197Z,2.70
2024-03-05T17:20:46.884Z,1.92
2024-03-05T17:23:22.200Z,2.08
2024-03-05T17:25:52.852Z,2.10
2024-03-05T17:28:19.758Z,1.90
2024-03-05T17:30:47.376Z,2.00
2024-03-05T17:33:15.841Z,2.30
2024-03-05T17:35:43.155Z,2.33
2024-03-05T17:38:14.027Z,1.83
2024-03-05T17:40:41.400Z,2.03
2024-03-05T17:43:08.778Z,2.13
2024-03-05T17:45:35.660Z,2.55
2024-03-05T17:48:07.007Z,2.25
2024-03-05T17:50:38.619Z,2.05
2024-03-05T17:53:06.753Z,1.98
2024-03-05T17:55:35.753Z,2.00
2024-03-05T17:58:05.240Z,2.63
2024-03-05T18:00:42.754Z,2.25
2024-03-05T18:03:12.340Z,2.45
2024-03-05T18:05:40.056Z,2.13
2024-03-05T18:08:07.701Z,2.35
2024-03-05T18:10:36.514Z,2.08
2024-03-05T18:13:06.214Z,1.75
2024-03-05T18:15:33.348Z,2.55
2024-03-05T18:18:00.280Z,2.30
2024-03-05T18:20:30.161Z,2.15
2024-03-05T18:23:00.601Z,0.32
2024-03-05T18:25:35.205Z,2.35
2024-03-05T18:28:03.314Z,2.63
2024-03-05T18:30:29.986Z,2.05
2024-03-05T18:32:57.326Z,2.17
2024-03-05T18:35:24.885Z,2.08
2024-03-05T18:37:51.880Z,3.20
2024-03-05T18:40:18.715Z,2.90
2024-03-05T18:42:48.701Z,3.10
2024-03-05T18:45:24.232Z,2.40
2024-03-05T18:47:59.333Z,3.10
2024-03-05T18:50:32.553Z,2.53
2024-03-05T18:53:01.118Z,2.67
2024-03-05T18:55:31.035Z,1.10
2024-03-05T18:57:58.061Z,0.98
2024-03-05T19:00:24.990Z,1.42
2024-03-05T19:02:54.858Z,1.58
2024-03-05T19:05:23.353Z,0.88
2024-03-05T19:07:51.407Z,1.30
2024-03-05T19:10:19.947Z,4.75
2024-03-05T19:12:47.361Z,1.27
2024-03-05T19:15:14.691Z,2.17
2024-03-05T19:17:42.528Z,1.60
2024-03-05T19:20:11.464Z,1.17
2024-03-05T19:22:42.273Z,1.45
2024-03-05T19:25:12.283Z,2.33
2024-03-05T19:27:41.029Z,1.20
2024-03-05T19:30:11.720Z,3.78
2024-03-05T19:32:43.238Z,1.70
2024-03-05T19:35:12.327Z,1.30
2024-03-05T19:37:43.899Z,3.67
2024-03-05T19:40:17.766Z,2.72
2024-03-05T19:42:46.169Z,1.67
2024-03-05T19:45:13.571Z,1.65
2024-03-05T19:47:40.616Z,2.85
2024-03-05T19:50:08.249Z,1.40
2024-03-05T19:52:36.882Z,1.90
2024-03-05T19:55:04.026Z,2.55
2024-03-05T19:57:30.706Z,1.75
2024-03-05T20:00:00.362Z,2.88
2024-03-05T20:02:28.975Z,1.90
2024-03-05T20:04:55.724Z,3.13
2024-03-05T20:07:22.632Z,3.05
2024-03-05T20:09:49.639Z,2.35
2024-03-05T20:12:16.470Z,2.13
2024-03-05T20:14:43.327Z,2.78
2024-03-05T20:17:10.084Z,3.38
2024-03-05T20:19:39.151Z,1.35
2024-03-05T20:22:07.707Z,2.47
2024-03-05T20:24:34.426Z,3.65
2024-03-05T20:27:03.496Z,2.03
2024-03-05T20:29:31.236Z,1.20
2024-03-05T20:32:02.009Z,2.00
2024-03-05T20:34:28.937Z,1.73
2024-03-05T20:36:56.392Z,1.90
2024-03-05T20:39:23.151Z,2.17
2024-03-05T20:41:49.945Z,1.33
2024-03-05T20:44:17.171Z,1.65
2024-03-05T20:46:44.064Z,1.95
2024-03-05T20:49:12.374Z,1.38
2024-03-05T20:51:39.543Z,2.58
2024-03-05T20:54:06.305Z,3.35
2024-03-05T20:56:33.062Z,2.35
2024-03-05T20:58:59.897Z,1.60
2024-03-05T21:01:26.783Z,1.58
2024-03-05T21:03:54.163Z,1.50
2024-03-05T21:06:20.901Z,2.47
2024-03-05T21:08:48.723Z,1.20
2024-03-05T21:11:16.441Z,1.48
2024-03-05T21:13:43.528Z,2.40
2024-03-05T21:16:11.741Z,3.30
2024-03-05T21:18:38.488Z,1.77
2024-03-05T21:21:06.713Z,2.50
2024-03-05T21:23:35.308Z,2.13
2024-03-05T21:26:13.637Z,1.40
2024-03-05T21:28:50.315Z,3.35
2024-03-05T21:31:18.658Z,1.63
2024-03-05T21:33:45.574Z,1.85
2024-03-05T21:36:12.376Z,1.35
2024-03-05T21:38:39.145Z,2.17
2024-03-05T21:41:09.983Z,1.83
2024-03-05T21:43:36.956Z,2.05
2024-03-05T21:46:05.325Z,2.45
2024-03-05T21:48:32.539Z,1.65
2024-03-05T21:51:06.477Z,2.10
2024-03-05T21:53:39.461Z,4.55
2024-03-05T21:56:06.890Z,1.75
2024-03-05T21:58:34.927Z,2.40
2024-03-05T22:01:02.961Z,1.95
2024-03-05T22:03:30.188Z,1.73
2024-03-05T22:06:02.031Z,2.38
2024-03-05T22:08:33.232Z,2.72
2024-03-05T22:11:00.242Z,2.13
2024-03-05T22:13:27.693Z,1.55
2024-03-05T22:15:54.418Z,2.38
2024-03-05T22:18:21.230Z,2.45
2024-03-05T22:20:49.551Z,1.98
2024-03-05T22:23:19.565Z,2.95
2024-03-05T22:25:54.790Z,2.47
2024-03-05T22:28:22.299Z,1.88
2024-03-05T22:30:49.935Z,1.85
2024-03-05T22:33:16.752Z,2.00
2024-03-05T22:35:43.613Z,1.85
2024-03-05T22:38:11.238Z,1.20
2024-03-05T22:40:38.234Z,2.10
2024-03-05T22:43:07.578Z,2.15
2024-03-05T22:45:35.089Z,1.95
2024-03-05T22:48:01.874Z,1.67
2024-03-05T22:50:28.622Z,1.98
2024-03-05T22:52:55.438Z,5.45
2024-03-05T22:55:22.228Z,1.08
2024-03-05T22:57:48.993Z,3.05
2024-03-05T23:00:24.295Z,1.38
2024-03-05T23:02:52.808Z,2.50
2024-03-05T23:05:21.039Z,2.08
2024-03-05T23:07:48.498Z,2.35
2024-03-05T23:10:16.420Z,1.65
2024-03-05T23:12:46.246Z,2.65
2024-03-05T23:15:16.620Z,2.13
2024-03-05T23:17:44.377Z,3.15
2024-03-05T23:20:12.441Z,2.13
2024-03-05T23:22:40.346Z,2.60
2024-03-05T23:25:08.254Z,3.10
2024-03-05T23:27:35.396Z,2.60
2024-03-05T23:30:04.143Z,1.08
2024-03-05T23:32:32.556Z,3.17
2024-03-05T23:35:02.524Z,1.77
2024-03-05T23:37:29.356Z,1.85
2024-03-05T23:39:56.093Z,2.55
2024-03-05T23:42:22.755Z,3.45
2024-03-05T23:44:49.424Z,2.75
2024-03-05T23:47:16.429Z,1.77
2024-03-05T23:49:45.107Z,3.03
2024-03-05T23:52:11.909Z,3.88
2024-03-05T23:54:38.835Z,1.55
2024-03-05T23:57:05.630Z,2.53
2024-03-05T23:59:32.439Z,2.22
